Time;durP1;ratioP1;P1;durP2;ratioP2;P2;SDS_P1;SDS_P2;PMS_P1;PMS_P2;Temp;Humidity;BMP_temperature;BMP_pressure;BME280_temperature;BME280_humidity;BME280_pressure;Samples;Min_cycle;Max_cycle;Signal;HPM_P1;HPM_P2
2022/06/25 00:01:08;;;;;;;0.37;0.33;;;18.50;99.90;;;;;;5041398;28;20214;-84
2022/06/25 00:03:33;;;;;;;0.40;0.40;;;18.50;99.90;;;;;;5038593;28;20232;-84
2022/06/25 00:05:59;;;;;;;0.30;0.30;;;18.70;99.90;;;;;;5038124;28;20217;-84
2022/06/25 00:08:24;;;;;;;0.47;0.47;;;18.60;99.90;;;;;;5038134;28;20288;-84
2022/06/25 00:10:51;;;;;;;0.30;0.30;;;18.50;99.90;;;;;;5038027;28;20228;-85
2022/06/25 00:13:17;;;;;;;0.20;0.20;;;18.50;99.90;;;;;;5040409;28;20186;-84
2022/06/25 00:15:43;;;;;;;1.00;0.30;;;18.50;99.90;;;;;;5036917;28;20186;-85
2022/06/25 00:18:09;;;;;;;0.60;0.27;;;18.20;99.90;;;;;;5038622;28;20270;-85
2022/06/25 00:20:35;;;;;;;0.57;0.50;;;18.20;99.90;;;;;;5039184;28;20253;-84
2022/06/25 00:23:00;;;;;;;0.20;0.20;;;18.20;99.90;;;;;;5038861;28;20212;-85
2022/06/25 00:25:26;;;;;;;0.30;0.30;;;18.10;99.90;;;;;;5037203;28;20197;-84
2022/06/25 00:27:52;;;;;;;0.40;0.40;;;18.10;99.90;;;;;;5037767;28;20242;-84
2022/06/25 00:30:17;;;;;;;0.33;0.33;;;18.10;99.90;;;;;;5045180;28;20190;-83
2022/06/25 00:32:44;;;;;;;0.27;0.27;;;18.10;99.90;;;;;;5036119;28;20186;-84
2022/06/25 00:35:10;;;;;;;0.40;0.40;;;18.00;99.90;;;;;;5037729;28;20213;-84
2022/06/25 00:37:36;;;;;;;1.50;0.60;;;18.00;99.90;;;;;;5060739;28;20214;-83
2022/06/25 00:40:02;;;;;;;0.20;0.20;;;18.00;99.90;;;;;;5045623;28;20201;-84
2022/06/25 00:42:28;;;;;;;0.27;0.27;;;18.10;99.90;;;;;;5038425;28;20189;-84
2022/06/25 00:44:55;;;;;;;0.20;0.20;;;18.10;99.90;;;;;;5039519;28;20214;-84
2022/06/25 00:47:21;;;;;;;0.20;0.20;;;18.10;99.90;;;;;;5035497;28;20217;-84
2022/06/25 00:49:47;;;;;;;0.23;0.23;;;18.20;99.90;;;;;;5037357;28;20189;-85
2022/06/25 00:52:15;;;;;;;0.20;0.20;;;18.20;99.90;;;;;;5038307;28;20182;-85
2022/06/25 00:54:55;;;;;;;0.30;0.30;;;18.20;99.90;;;;;;5038231;28;20271;-83
2022/06/25 00:57:26;;;;;;;0.17;0.17;;;18.10;99.90;;;;;;5039703;28;20215;-85
2022/06/25 00:59:57;;;;;;;0.40;0.40;;;18.10;99.90;;;;;;5041257;28;20200;-85
2022/06/25 01:02:23;;;;;;;0.30;0.30;;;18.10;99.90;;;;;;5034201;28;20201;-84
2022/06/25 01:04:50;;;;;;;0.20;0.20;;;18.10;99.90;;;;;;5036382;28;20218;-84
2022/06/25 01:07:16;;;;;;;0.40;0.40;;;18.10;99.90;;;;;;5036138;28;22003;-85
2022/06/25 01:09:44;;;;;;;1.13;0.30;;;18.10;99.90;;;;;;5043951;28;20182;-84
2022/06/25 01:12:10;;;;;;;0.30;0.30;;;18.00;99.90;;;;;;5044235;28;20214;-83
2022/06/25 01:14:36;;;;;;;0.20;0.20;;;17.90;99.90;;;;;;5037536;28;20232;-84
2022/06/25 01:17:10;;;;;;;0.77;0.77;;;17.80;99.90;;;;;;5037316;28;20199;-85
2022/06/25 01:19:37;;;;;;;0.20;0.20;;;17.80;99.90;;;;;;5035509;28;20188;-85
2022/06/25 01:22:07;;;;;;;0.17;0.17;;;17.80;99.90;;;;;;5037155;28;20229;-85
2022/06/25 01:24:33;;;;;;;0.40;0.20;;;17.80;99.90;;;;;;5037370;28;21154;-85
2022/06/25 01:26:59;;;;;;;0.27;0.27;;;17.70;99.90;;;;;;5037160;28;20759;-84
2022/06/25 01:29:24;;;;;;;0.37;0.37;;;17.80;99.90;;;;;;5038412;28;20182;-85
2022/06/25 01:31:51;;;;;;;0.40;0.30;;;17.80;99.90;;;;;;5035549;28;20194;-84
2022/06/25 01:34:17;;;;;;;0.20;0.20;;;17.80;99.90;;;;;;5035322;28;20205;-83
2022/06/25 01:36:43;;;;;;;0.37;0.37;;;17.80;99.90;;;;;;5037322;28;20187;-84
2022/06/25 01:39:09;;;;;;;0.10;0.10;;;17.80;99.90;;;;;;5038701;28;20690;-84
2022/06/25 01:41:34;;;;;;;0.23;0.23;;;17.70;99.90;;;;;;5035866;28;20209;-84
2022/06/25 01:44:00;;;;;;;0.20;0.20;;;17.70;99.90;;;;;;5037692;28;20255;-84
2022/06/25 01:46:25;;;;;;;0.53;0.30;;;17.70;99.90;;;;;;5034085;28;20764;-85
2022/06/25 01:48:51;;;;;;;0.40;0.40;;;17.70;99.90;;;;;;5036195;28;20213;-85
2022/06/25 01:51:17;;;;;;;0.23;0.23;;;17.50;99.90;;;;;;5035906;28;20278;-83
2022/06/25 01:53:43;;;;;;;0.47;0.47;;;17.40;99.90;;;;;;5034149;28;20224;-84
2022/06/25 01:56:09;;;;;;;0.30;0.30;;;17.40;99.90;;;;;;5037943;28;20561;-83
2022/06/25 01:58:36;;;;;;;0.20;0.20;;;17.40;99.90;;;;;;5036635;28;20203;-84
2022/06/25 02:01:03;;;;;;;0.37;0.37;;;17.50;99.90;;;;;;5035349;28;20192;-84
2022/06/25 02:03:28;;;;;;;0.10;0.10;;;17.30;99.90;;;;;;5042300;28;20281;-85
2022/06/25 02:05:56;;;;;;;0.20;0.20;;;17.00;99.90;;;;;;5036485;28;20297;-83
2022/06/25 02:08:23;;;;;;;0.20;0.20;;;16.90;99.90;;;;;;5033950;28;20230;-84
2022/06/25 02:10:49;;;;;;;0.30;0.30;;;16.90;99.90;;;;;;5059940;28;20563;-84
2022/06/25 02:13:15;;;;;;;0.30;0.30;;;17.00;99.90;;;;;;5037305;28;20189;-84
2022/06/25 02:15:41;;;;;;;0.40;0.40;;;16.90;99.90;;;;;;5043667;28;20181;-85
2022/06/25 02:18:08;;;;;;;0.43;0.40;;;16.70;99.90;;;;;;5036186;28;20232;-83
2022/06/25 02:20:34;;;;;;;0.33;0.20;;;16.60;99.90;;;;;;5034658;28;20187;-84
2022/06/25 02:22:59;;;;;;;0.50;0.50;;;16.50;99.90;;;;;;5035018;28;20240;-85
2022/06/25 02:25:25;;;;;;;0.20;0.20;;;16.40;99.90;;;;;;5036228;28;20686;-84
2022/06/25 02:27:51;;;;;;;0.27;0.27;;;16.40;99.90;;;;;;5041007;28;20278;-84
2022/06/25 02:30:16;;;;;;;0.20;0.20;;;16.40;99.90;;;;;;5036934;28;20328;-84
2022/06/25 02:32:42;;;;;;;1.13;0.20;;;16.60;99.90;;;;;;5039111;28;20194;-85
2022/06/25 02:35:08;;;;;;;0.20;0.20;;;16.80;99.90;;;;;;5046326;28;20194;-85
2022/06/25 02:37:34;;;;;;;0.17;0.17;;;16.70;99.90;;;;;;5050599;28;21029;-84
2022/06/25 02:39:59;;;;;;;0.40;0.40;;;16.80;99.90;;;;;;5045693;28;20248;-85
2022/06/25 02:42:31;;;;;;;0.20;0.20;;;17.10;99.90;;;;;;5046760;28;20239;-84
2022/06/25 02:44:56;;;;;;;0.20;0.20;;;17.20;99.90;;;;;;5045665;28;20236;-85
2022/06/25 02:47:22;;;;;;;0.30;0.30;;;17.40;99.90;;;;;;5041590;28;20195;-84
2022/06/25 02:49:47;;;;;;;0.20;0.20;;;17.30;99.90;;;;;;5039926;28;20186;-83
2022/06/25 02:52:13;;;;;;;0.10;0.10;;;17.50;99.90;;;;;;5039765;28;20174;-84
2022/06/25 02:54:38;;;;;;;0.50;0.50;;;17.50;99.90;;;;;;5041609;28;20220;-84
2022/06/25 02:59:49;;;;;;;0.73;0.47;;;17.40;99.90;;;;;;5040718;28;20223;-85
2022/06/25 03:02:15;;;;;;;0.83;0.50;;;17.50;99.90;;;;;;5041260;28;20189;-83
2022/06/25 03:04:40;;;;;;;0.30;0.30;;;17.50;99.90;;;;;;5037447;28;20928;-84
2022/06/25 03:07:06;;;;;;;0.27;0.27;;;17.20;99.90;;;;;;5037112;28;20215;-84
2022/06/25 03:09:31;;;;;;;0.30;0.30;;;17.20;99.90;;;;;;5046708;28;20279;-83
2022/06/25 03:11:57;;;;;;;0.53;0.53;;;17.30;99.90;;;;;;5038059;28;20179;-84
2022/06/25 03:14:23;;;;;;;0.37;0.27;;;17.30;99.90;;;;;;5039340;28;20192;-85
2022/06/25 03:16:48;;;;;;;0.20;0.20;;;17.30;99.90;;;;;;5037726;28;21160;-83
2022/06/25 03:19:14;;;;;;;0.10;0.10;;;17.40;99.90;;;;;;5049316;28;20761;-84
2022/06/25 03:21:40;;;;;;;0.83;0.50;;;17.30;99.90;;;;;;5042388;28;20999;-83
2022/06/25 03:24:06;;;;;;;0.43;0.43;;;17.10;99.90;;;;;;5049279;28;20182;-83
2022/06/25 03:26:31;;;;;;;0.10;0.10;;;17.20;99.90;;;;;;5043535;28;20205;-83
2022/06/25 03:28:57;;;;;;;0.40;0.40;;;17.30;99.90;;;;;;5040229;28;20205;-83
2022/06/25 03:31:23;;;;;;;0.30;0.30;;;17.40;99.90;;;;;;5042827;28;20189;-83
2022/06/25 03:33:49;;;;;;;0.27;0.27;;;17.40;99.90;;;;;;5064878;28;20285;-84
2022/06/25 03:36:14;;;;;;;0.30;0.30;;;17.40;99.90;;;;;;5042750;28;20190;-84
2022/06/25 03:38:40;;;;;;;0.13;0.13;;;17.40;99.90;;;;;;5041690;28;20215;-84
2022/06/25 03:43:49;;;;;;;0.20;0.20;;;17.30;99.90;;;;;;5041398;28;20264;-83
2022/06/25 03:46:15;;;;;;;0.40;0.27;;;17.20;99.90;;;;;;5044145;28;20201;-84
2022/06/25 03:48:41;;;;;;;0.20;0.20;;;17.00;99.90;;;;;;5041220;28;20214;-84
2022/06/25 03:51:06;;;;;;;0.20;0.20;;;17.10;99.90;;;;;;5042263;28;20189;-84
2022/06/25 03:53:32;;;;;;;0.57;0.57;;;17.20;99.90;;;;;;5042817;28;20187;-86
2022/06/25 03:55:58;;;;;;;0.20;0.20;;;17.30;99.90;;;;;;5042973;28;20228;-84
2022/06/25 03:58:24;;;;;;;0.30;0.30;;;16.80;99.90;;;;;;5039998;28;20217;-84
2022/06/25 04:00:50;;;;;;;1.70;0.50;;;17.60;99.90;;;;;;5047620;28;20181;-83
2022/06/25 04:03:15;;;;;;;2.20;0.40;;;19.30;99.90;;;;;;5041377;28;20197;-84
2022/06/25 04:05:41;;;;;;;0.20;0.20;;;20.70;99.90;;;;;;5041714;28;20222;-85
2022/06/25 04:08:06;;;;;;;5.00;0.33;;;21.50;99.90;;;;;;5038162;28;20252;-83
2022/06/25 04:10:32;;;;;;;0.10;0.10;;;21.90;99.90;;;;;;5038909;28;20185;-84
2022/06/25 04:12:57;;;;;;;0.70;0.40;;;22.90;99.90;;;;;;5041237;28;20248;-84
2022/06/25 04:15:23;;;;;;;0.47;0.23;;;22.40;99.90;;;;;;5042059;28;20561;-85
2022/06/25 04:17:48;;;;;;;0.23;0.23;;;21.30;99.90;;;;;;5039717;28;20244;-83
2022/06/25 04:20:14;;;;;;;0.20;0.20;;;20.60;99.90;;;;;;5039469;28;20288;-84
2022/06/25 04:22:39;;;;;;;0.30;0.30;;;20.10;99.90;;;;;;5040232;28;20272;-85
2022/06/25 04:25:05;;;;;;;0.30;0.30;;;19.80;99.90;;;;;;5038740;28;20210;-84
2022/06/25 04:30:15;;;;;;;0.17;0.17;;;21.00;99.90;;;;;;5040206;28;20281;-84
2022/06/25 04:32:40;;;;;;;0.67;0.50;;;20.40;99.90;;;;;;5038569;28;20571;-84
2022/06/25 04:35:07;;;;;;;0.30;0.30;;;19.60;99.90;;;;;;5046919;28;20609;-85
2022/06/25 04:37:32;;;;;;;0.40;0.40;;;19.70;99.90;;;;;;5039495;28;20284;-85
2022/06/25 04:39:58;;;;;;;0.63;0.30;;;20.00;99.90;;;;;;5039882;28;20264;-85
2022/06/25 04:42:23;;;;;;;0.20;0.20;;;20.20;99.90;;;;;;5040667;28;20244;-84
2022/06/25 04:44:49;;;;;;;0.27;0.27;;;20.30;99.90;;;;;;5037015;28;20221;-85
2022/06/25 04:47:14;;;;;;;0.17;0.17;;;20.50;99.90;;;;;;5040206;28;20199;-85
2022/06/25 04:49:40;;;;;;;0.40;0.40;;;20.60;99.90;;;;;;5041281;28;20186;-84
2022/06/25 04:52:05;;;;;;;0.20;0.20;;;20.50;99.90;;;;;;5039927;28;20188;-83
2022/06/25 04:54:31;;;;;;;0.77;0.73;;;20.60;99.90;;;;;;5039953;28;20181;-83
2022/06/25 04:56:57;;;;;;;7.00;2.93;;;19.70;99.90;;;;;;5038653;28;20182;-84
2022/06/25 04:59:23;;;;;;;0.23;0.23;;;19.50;99.90;;;;;;5037820;28;20201;-84
2022/06/25 05:01:49;;;;;;;0.27;0.27;;;19.70;99.90;;;;;;5036234;28;20193;-85
2022/06/25 05:04:14;;;;;;;0.87;0.67;;;19.90;99.90;;;;;;5039067;28;20232;-83
2022/06/25 05:06:40;;;;;;;0.20;0.20;;;19.80;99.90;;;;;;5037011;28;20316;-85
2022/06/25 05:09:05;;;;;;;0.20;0.20;;;19.80;99.90;;;;;;5045045;28;20288;-84
2022/06/25 05:11:31;;;;;;;3.83;1.47;;;20.00;99.90;;;;;;5036294;28;20209;-84
2022/06/25 05:13:57;;;;;;;0.30;0.30;;;20.30;99.90;;;;;;5037425;28;20274;-84
2022/06/25 05:16:22;;;;;;;0.20;0.20;;;20.70;99.90;;;;;;5038138;28;20208;-84
2022/06/25 05:18:48;;;;;;;0.27;0.27;;;20.60;99.90;;;;;;5037858;28;20297;-84
2022/06/25 05:21:14;;;;;;;0.53;0.53;;;20.00;99.90;;;;;;5039441;28;20786;-83
2022/06/25 05:23:40;;;;;;;0.50;0.50;;;20.10;99.90;;;;;;5035964;28;20190;-84
2022/06/25 05:26:05;;;;;;;0.30;0.30;;;19.90;99.90;;;;;;5039326;28;20551;-84
2022/06/25 05:28:31;;;;;;;0.60;0.50;;;19.80;99.90;;;;;;5038454;28;20208;-85
2022/06/25 05:30:56;;;;;;;0.53;0.53;;;20.00;99.90;;;;;;5039223;28;20199;-85
2022/06/25 05:33:22;;;;;;;0.43;0.40;;;20.10;99.90;;;;;;5041060;28;20201;-84
2022/06/25 05:35:48;;;;;;;0.30;0.30;;;20.30;99.90;;;;;;5038917;28;20182;-85
2022/06/25 05:38:14;;;;;;;0.27;0.27;;;20.50;99.90;;;;;;5040753;28;20687;-84
2022/06/25 05:40:39;;;;;;;0.80;0.80;;;20.10;99.90;;;;;;5038457;28;20262;-84
2022/06/25 05:43:05;;;;;;;0.30;0.30;;;19.80;99.90;;;;;;5037382;28;20201;-84
2022/06/25 05:45:31;;;;;;;0.77;0.40;;;19.70;99.90;;;;;;5042510;28;20209;-84
2022/06/25 05:47:56;;;;;;;0.60;0.60;;;19.40;99.90;;;;;;5036263;28;20206;-85
2022/06/25 05:50:22;;;;;;;0.90;0.60;;;18.80;99.90;;;;;;5036435;28;20186;-84
2022/06/25 05:52:48;;;;;;;1.30;0.50;;;18.70;99.90;;;;;;5038272;28;20197;-86
2022/06/25 05:55:13;;;;;;;0.47;0.47;;;18.70;99.90;;;;;;5039169;28;20257;-82
2022/06/25 05:57:39;;;;;;;0.37;0.37;;;19.00;99.90;;;;;;5037572;28;20314;-83
2022/06/25 06:00:05;;;;;;;0.30;0.30;;;19.30;99.90;;;;;;5036618;28;20249;-83
2022/06/25 06:02:31;;;;;;;0.30;0.30;;;19.30;99.90;;;;;;5036688;28;20252;-83
2022/06/25 06:04:56;;;;;;;0.23;0.23;;;19.60;99.90;;;;;;5035482;28;20215;-83
2022/06/25 06:07:22;;;;;;;0.50;0.50;;;19.30;99.90;;;;;;5035443;28;20212;-83
2022/06/25 06:09:48;;;;;;;0.30;0.30;;;19.10;99.90;;;;;;5031422;28;20255;-83
2022/06/25 06:12:14;;;;;;;0.50;0.50;;;19.20;99.90;;;;;;5033073;28;20178;-83
2022/06/25 06:14:39;;;;;;;0.30;0.30;;;19.70;99.90;;;;;;5035568;28;20252;-83
2022/06/25 06:17:05;;;;;;;0.83;0.20;;;19.90;99.90;;;;;;5059444;28;20236;-83
2022/06/25 06:19:30;;;;;;;0.73;0.67;;;19.90;99.90;;;;;;5034560;28;20209;-83
2022/06/25 06:21:56;;;;;;;1.10;0.67;;;19.40;99.90;;;;;;5036527;28;20197;-83
2022/06/25 06:24:22;;;;;;;0.30;0.30;;;19.40;99.90;;;;;;5037913;28;20185;-82
2022/06/25 06:26:47;;;;;;;0.33;0.33;;;19.90;99.90;;;;;;5036480;28;20220;-81
2022/06/25 06:29:13;;;;;;;0.20;0.20;;;20.50;99.90;;;;;;5036270;28;20217;-83
2022/06/25 06:31:38;;;;;;;0.40;0.40;;;21.00;99.90;;;;;;5034159;28;20185;-83
2022/06/25 06:34:04;;;;;;;0.70;0.37;;;21.50;99.90;;;;;;5035756;28;20528;-84
2022/06/25 06:36:29;;;;;;;0.50;0.50;;;21.70;99.90;;;;;;5036788;28;20185;-83
2022/06/25 06:38:55;;;;;;;0.67;0.67;;;21.80;99.90;;;;;;5036446;28;20214;-84
2022/06/25 06:41:20;;;;;;;0.50;0.50;;;22.00;99.90;;;;;;5035370;28;20198;-84
2022/06/25 06:43:46;;;;;;;0.80;0.40;;;22.00;99.90;;;;;;5035915;28;20212;-83
2022/06/25 06:46:13;;;;;;;0.90;0.90;;;22.00;99.90;;;;;;5033411;28;20636;-83
2022/06/25 06:48:39;;;;;;;1.00;0.70;;;22.00;99.90;;;;;;5034733;28;20197;-83
2022/06/25 06:51:05;;;;;;;1.53;0.63;;;21.80;99.90;;;;;;5034855;28;20178;-83
2022/06/25 06:53:31;;;;;;;0.43;0.43;;;21.70;99.90;;;;;;5034566;28;20190;-83
2022/06/25 06:55:57;;;;;;;0.47;0.47;;;21.60;99.90;;;;;;5035504;28;20210;-85
2022/06/25 06:58:22;;;;;;;0.40;0.40;;;21.40;99.90;;;;;;5035494;28;20208;-83
2022/06/25 07:00:48;;;;;;;0.40;0.40;;;21.40;99.90;;;;;;5035717;28;20238;-83
2022/06/25 07:03:13;;;;;;;0.50;0.50;;;21.40;99.90;;;;;;5037456;28;20221;-83
2022/06/25 07:05:39;;;;;;;0.50;0.50;;;21.50;99.90;;;;;;5035015;28;20300;-84
2022/06/25 07:08:05;;;;;;;0.70;0.70;;;21.50;99.90;;;;;;5034892;28;20209;-83
2022/06/25 07:10:30;;;;;;;0.70;0.70;;;21.40;99.90;;;;;;5034968;28;20284;-83
2022/06/25 07:12:56;;;;;;;0.80;0.80;;;21.50;99.90;;;;;;5035034;28;20273;-83
2022/06/25 07:15:21;;;;;;;0.43;0.43;;;21.70;99.90;;;;;;5034850;28;20261;-83
2022/06/25 07:17:47;;;;;;;0.80;0.80;;;21.50;99.90;;;;;;5036630;28;20240;-84
2022/06/25 07:20:12;;;;;;;0.90;0.80;;;21.20;99.90;;;;;;5041375;28;20216;-83
2022/06/25 07:22:38;;;;;;;0.80;0.80;;;20.60;99.90;;;;;;5032214;28;20205;-84
2022/06/25 07:25:04;;;;;;;0.83;0.80;;;21.10;99.90;;;;;;5034883;28;20628;-83
2022/06/25 07:27:30;;;;;;;0.60;0.60;;;21.60;99.90;;;;;;5033040;28;20205;-84
2022/06/25 07:29:56;;;;;;;0.83;0.63;;;22.00;99.90;;;;;;5034519;28;20301;-85
2022/06/25 07:32:21;;;;;;;0.60;0.43;;;22.20;99.90;;;;;;5032894;28;20193;-84
2022/06/25 07:34:47;;;;;;;0.63;0.63;;;22.10;99.90;;;;;;5029619;28;20644;-84
2022/06/25 07:37:13;;;;;;;1.53;1.03;;;21.80;99.90;;;;;;5031703;28;20194;-84
2022/06/25 07:39:38;;;;;;;0.97;0.97;;;21.80;99.90;;;;;;5035003;28;20200;-84
2022/06/25 07:42:04;;;;;;;1.20;0.83;;;21.70;99.90;;;;;;5032511;28;20289;-83
2022/06/25 07:44:30;;;;;;;2.53;2.33;;;22.00;99.90;;;;;;5033834;28;20198;-82
2022/06/25 07:46:55;;;;;;;0.60;0.60;;;22.50;99.90;;;;;;5034837;28;20702;-83
2022/06/25 07:49:21;;;;;;;0.60;0.60;;;22.00;99.90;;;;;;5033012;28;20679;-84
2022/06/25 07:52:03;;;;;;;0.60;0.60;;;22.40;99.90;;;;;;5034614;28;20322;-84
2022/06/25 07:54:31;;;;;;;0.60;0.60;;;22.80;99.90;;;;;;5035482;28;20205;-84
2022/06/25 07:56:57;;;;;;;1.20;1.10;;;23.00;99.90;;;;;;5036166;28;20197;-83
2022/06/25 07:59:24;;;;;;;0.60;0.60;;;23.30;99.90;;;;;;5036715;28;20240;-84
2022/06/25 08:01:50;;;;;;;0.63;0.63;;;23.40;99.90;;;;;;5034739;28;20690;-84
2022/06/25 08:04:15;;;;;;;0.93;0.53;;;23.40;99.90;;;;;;5035134;28;20183;-83
2022/06/25 08:06:41;;;;;;;0.70;0.70;;;23.50;99.90;;;;;;5044318;28;21041;-84
2022/06/25 08:09:10;;;;;;;0.60;0.60;;;23.60;99.90;;;;;;5036794;28;20209;-83
2022/06/25 08:11:37;;;;;;;0.80;0.80;;;22.70;99.90;;;;;;5039795;28;20186;-85
2022/06/25 08:14:03;;;;;;;1.17;0.77;;;22.40;99.90;;;;;;5039059;28;20234;-85
2022/06/25 08:16:28;;;;;;;0.70;0.60;;;21.80;99.90;;;;;;5036216;28;20244;-85
2022/06/25 08:18:55;;;;;;;1.30;1.20;;;21.80;99.90;;;;;;5039678;28;20215;-85
2022/06/25 08:21:20;;;;;;;1.10;1.00;;;21.80;99.90;;;;;;5038981;28;20644;-84
2022/06/25 08:23:46;;;;;;;1.27;0.73;;;21.40;99.90;;;;;;5038168;28;20262;-82
2022/06/25 08:26:12;;;;;;;0.37;0.37;;;21.40;99.90;;;;;;5038381;28;20255;-83
2022/06/25 08:28:38;;;;;;;1.13;1.03;;;22.00;99.90;;;;;;5037992;28;20205;-83
2022/06/25 08:31:04;;;;;;;0.80;0.80;;;21.60;99.90;;;;;;5036898;28;20186;-83
2022/06/25 08:33:30;;;;;;;0.53;0.53;;;21.60;99.90;;;;;;5035113;28;20192;-83
2022/06/25 08:35:56;;;;;;;0.37;0.37;;;22.10;99.90;;;;;;5037442;28;20189;-83
2022/06/25 08:38:22;;;;;;;0.50;0.50;;;22.70;99.90;;;;;;5037851;28;20279;-82
2022/06/25 08:40:48;;;;;;;1.43;1.33;;;23.10;99.90;;;;;;5036342;28;20183;-83
2022/06/25 08:43:14;;;;;;;0.63;0.60;;;23.30;99.90;;;;;;5037327;28;20218;-83
2022/06/25 08:45:40;;;;;;;0.97;0.97;;;23.60;99.90;;;;;;5036771;28;20217;-84
2022/06/25 08:48:13;;;;;;;1.37;1.20;;;23.00;99.90;;;;;;5040495;28;20715;-83
2022/06/25 08:50:40;;;;;;;1.23;1.13;;;22.70;99.90;;;;;;5038835;28;20226;-83
2022/06/25 08:53:07;;;;;;;0.67;0.67;;;22.50;99.90;;;;;;5047849;28;20192;-83
2022/06/25 08:55:36;;;;;;;0.67;0.67;;;23.10;99.90;;;;;;5045482;28;20272;-83
2022/06/25 08:58:03;;;;;;;0.70;0.70;;;23.70;99.90;;;;;;5039867;28;20212;-83
2022/06/25 09:00:34;;;;;;;0.67;0.67;;;23.80;99.90;;;;;;5039728;28;20654;-83
2022/06/25 09:03:01;;;;;;;0.70;0.70;;;24.00;99.90;;;;;;5037970;28;20185;-83
2022/06/25 09:05:33;;;;;;;0.57;0.57;;;24.50;99.90;;;;;;5037245;28;20262;-82
2022/06/25 09:08:01;;;;;;;1.63;1.10;;;24.20;99.90;;;;;;5037901;28;20206;-84
2022/06/25 09:10:28;;;;;;;0.67;0.67;;;23.90;99.90;;;;;;5039926;28;20195;-84
2022/06/25 09:12:57;;;;;;;1.53;1.43;;;23.40;99.90;;;;;;5044242;28;20195;-84
2022/06/25 09:15:28;;;;;;;0.80;0.80;;;23.00;99.90;;;;;;5045664;28;20638;-82
2022/06/25 09:17:54;;;;;;;0.93;0.70;;;23.20;99.90;;;;;;5043985;28;20311;-83
2022/06/25 09:20:21;;;;;;;0.43;0.43;;;23.60;99.90;;;;;;5039728;28;20305;-83
2022/06/25 09:22:57;;;;;;;0.63;0.57;;;24.10;99.90;;;;;;5040225;28;20190;-83
2022/06/25 09:25:34;;;;;;;1.00;1.00;;;24.20;99.90;;;;;;5040070;28;20257;-83
2022/06/25 09:28:01;;;;;;;1.37;0.83;;;23.50;99.90;;;;;;5043778;28;20213;-83
2022/06/25 09:30:29;;;;;;;0.53;0.53;;;22.90;99.90;;;;;;5045682;28;20181;-83
2022/06/25 09:32:58;;;;;;;1.27;1.00;;;23.90;99.90;;;;;;5038728;28;20650;-83
2022/06/25 09:35:43;;;;;;;1.43;0.73;;;24.10;99.90;;;;;;5041129;28;20294;-83
2022/06/25 09:38:14;;;;;;;0.70;0.67;;;24.70;99.90;;;;;;5041722;28;20796;-83
2022/06/25 09:40:57;;;;;;;0.63;0.63;;;24.90;99.90;;;;;;5037771;28;20238;-83
2022/06/25 09:43:27;;;;;;;1.50;1.13;;;25.30;99.90;;;;;;5042270;28;20194;-84
2022/06/25 09:45:56;;;;;;;0.63;0.63;;;25.70;99.90;;;;;;5036108;28;20206;-84
2022/06/25 09:48:29;;;;;;;1.13;0.60;;;26.00;99.90;;;;;;5037831;28;20205;-85
2022/06/25 09:51:10;;;;;;;0.53;0.53;;;26.30;99.90;;;;;;5037316;28;20182;-83
2022/06/25 09:53:53;;;;;;;0.43;0.43;;;26.20;99.90;;;;;;5037742;28;20174;-85
2022/06/25 09:56:21;;;;;;;1.20;0.80;;;26.40;99.90;;;;;;5037014;28;20349;-84
2022/06/25 09:58:48;;;;;;;1.67;0.70;;;26.50;99.90;;;;;;5042710;28;20202;-84
2022/06/25 10:01:16;;;;;;;0.50;0.50;;;26.70;99.90;;;;;;5035664;28;20883;-84
2022/06/25 10:03:42;;;;;;;0.50;0.50;;;26.90;99.90;;;;;;5035351;28;20221;-84
2022/06/25 10:06:08;;;;;;;0.47;0.47;;;27.00;99.90;;;;;;5035022;28;20252;-84
2022/06/25 10:08:35;;;;;;;1.00;0.80;;;27.20;99.90;;;;;;5042613;28;20244;-84
2022/06/25 10:11:04;;;;;;;2.70;1.27;;;27.00;99.90;;;;;;5034374;28;20360;-83
2022/06/25 10:13:30;;;;;;;1.30;1.20;;;25.90;99.90;;;;;;5036996;28;20671;-84
2022/06/25 10:15:56;;;;;;;0.67;0.60;;;26.60;99.90;;;;;;5035125;28;20194;-84
2022/06/25 10:18:24;;;;;;;0.73;0.70;;;26.90;99.90;;;;;;5036004;28;20212;-84
2022/06/25 10:20:50;;;;;;;0.70;0.70;;;26.40;99.90;;;;;;5035346;28;20185;-83
2022/06/25 10:23:16;;;;;;;0.73;0.73;;;26.40;99.90;;;;;;5036596;28;20212;-84
2022/06/25 10:25:42;;;;;;;0.93;0.93;;;26.30;99.90;;;;;;5037410;28;22062;-84
2022/06/25 10:28:14;;;;;;;0.67;0.60;;;25.40;99.90;;;;;;5036190;28;20233;-84
2022/06/25 10:30:51;;;;;;;0.80;0.80;;;25.20;99.90;;;;;;5036245;28;20182;-83
2022/06/25 10:33:21;;;;;;;0.63;0.63;;;25.90;99.90;;;;;;5034978;28;20746;-84
2022/06/25 10:35:48;;;;;;;0.60;0.60;;;25.60;99.90;;;;;;5040270;28;20234;-83
2022/06/25 10:38:17;;;;;;;1.67;0.90;;;25.50;99.90;;;;;;5034632;28;20296;-83
2022/06/25 10:40:47;;;;;;;0.40;0.40;;;26.30;99.90;;;;;;5036036;28;20671;-83
2022/06/25 10:43:42;;;;;;;0.70;0.67;;;26.70;99.90;;;;;;5033257;28;20241;-83
2022/06/25 10:46:33;;;;;;;1.03;0.77;;;26.80;99.90;;;;;;5032854;28;20213;-83
2022/06/25 10:49:10;;;;;;;0.43;0.43;;;26.50;99.90;;;;;;5039309;28;20625;-85
2022/06/25 10:51:38;;;;;;;4.33;0.50;;;27.20;99.90;;;;;;5035857;28;20248;-84
2022/06/25 10:54:23;;;;;;;0.57;0.37;;;27.70;99.90;;;;;;5041711;28;20647;-84
2022/06/25 10:56:51;;;;;;;0.50;0.50;;;26.90;99.90;;;;;;5036683;28;20182;-84
2022/06/25 10:59:32;;;;;;;0.67;0.67;;;27.00;99.90;;;;;;5035721;28;20218;-84
2022/06/25 11:01:59;;;;;;;0.83;0.83;;;27.50;99.90;;;;;;5036473;28;20244;-85
2022/06/25 11:04:28;;;;;;;0.73;0.73;;;27.40;99.90;;;;;;5034447;28;20186;-84
2022/06/25 11:07:08;;;;;;;0.77;0.77;;;27.20;99.90;;;;;;5036972;28;20221;-85
2022/06/25 11:09:34;;;;;;;0.43;0.43;;;27.90;99.90;;;;;;5035232;28;20229;-83
2022/06/25 11:12:01;;;;;;;0.73;0.73;;;28.20;99.90;;;;;;5034894;28;20190;-83
2022/06/25 11:14:26;;;;;;;0.70;0.60;;;28.40;99.90;;;;;;5033653;28;20193;-83
2022/06/25 11:16:54;;;;;;;1.03;0.97;;;27.70;99.90;;;;;;5034815;28;20190;-83
2022/06/25 11:19:21;;;;;;;1.03;1.03;;;27.70;99.90;;;;;;5032536;28;20209;-82
2022/06/25 11:21:48;;;;;;;0.40;0.40;;;27.70;99.90;;;;;;5031999;28;20197;-83
2022/06/25 11:24:18;;;;;;;0.53;0.53;;;27.70;99.90;;;;;;5032214;28;20654;-83
2022/06/25 11:29:36;;;;;;;0.63;0.63;;;28.60;99.90;;;;;;5038069;28;20188;-85
2022/06/25 11:32:02;;;;;;;0.65;0.47;;;29.00;99.90;;;;;;5035294;28;20579;-83
2022/06/25 11:34:29;;;;;;;0.60;0.60;;;27.90;99.90;;;;;;5039178;28;20220;-83
2022/06/25 11:37:09;;;;;;;0.47;0.30;;;28.30;99.90;;;;;;5032878;28;20675;-83
2022/06/25 11:39:36;;;;;;;0.60;0.60;;;28.40;99.90;;;;;;5041309;28;20182;-83
2022/06/25 11:42:04;;;;;;;0.40;0.40;;;28.40;99.90;;;;;;5037842;28;20960;-83
2022/06/25 11:44:52;;;;;;;1.67;1.58;;;28.30;99.90;;;;;;5042531;28;21067;-83
2022/06/25 11:47:25;;;;;;;0.30;0.30;;;28.80;99.90;;;;;;5043720;28;20185;-84
2022/06/25 11:49:52;;;;;;;0.38;0.38;;;28.90;99.90;;;;;;5047641;28;20182;-83
2022/06/25 11:52:19;;;;;;;0.50;0.47;;;29.20;99.90;;;;;;5044363;28;20194;-83
2022/06/25 11:54:46;;;;;;;0.73;0.70;;;28.40;99.90;;;;;;5044994;28;20178;-83
2022/06/25 11:57:23;;;;;;;0.40;0.40;;;27.00;99.90;;;;;;5048469;28;21247;-83
2022/06/25 11:59:51;;;;;;;0.70;0.40;;;27.50;99.90;;;;;;5045563;28;20183;-83
2022/06/25 12:02:16;;;;;;;0.50;0.50;;;28.00;99.90;;;;;;5043346;28;20191;-83
2022/06/25 12:04:51;;;;;;;0.53;0.50;;;27.10;99.90;;;;;;5043335;28;20560;-83
2022/06/25 12:07:23;;;;;;;0.50;0.50;;;27.20;99.90;;;;;;5042145;28;20177;-82
2022/06/25 12:09:51;;;;;;;0.53;0.53;;;27.10;99.90;;;;;;5043574;28;20861;-83
2022/06/25 12:12:17;;;;;;;0.33;0.33;;;27.30;99.90;;;;;;5041748;28;20253;-82
2022/06/25 12:14:45;;;;;;;0.40;0.40;;;27.70;99.90;;;;;;5040817;28;20183;-84
2022/06/25 12:17:11;;;;;;;0.47;0.47;;;28.40;99.90;;;;;;5046298;28;20182;-84
2022/06/25 12:19:50;;;;;;;0.67;0.67;;;28.40;99.90;;;;;;5047856;28;20183;-84
2022/06/25 12:22:23;;;;;;;0.50;0.50;;;28.50;99.90;;;;;;5047536;28;20182;-84
2022/06/25 12:24:50;;;;;;;0.25;0.25;;;28.90;99.90;;;;;;5046305;28;20202;-85
2022/06/25 12:27:16;;;;;;;0.45;0.45;;;29.00;99.90;;;;;;5044975;28;20184;-85
2022/06/25 12:29:46;;;;;;;0.50;0.50;;;29.20;99.90;;;;;;5044697;28;20193;-85
2022/06/25 12:32:12;;;;;;;0.60;0.60;;;29.50;99.90;;;;;;5047397;28;20183;-85
2022/06/25 12:34:49;;;;;;;0.50;0.50;;;29.60;99.90;;;;;;5044461;28;20212;-85
2022/06/25 12:37:32;;;;;;;0.77;0.77;;;29.60;99.90;;;;;;5050324;28;20231;-85
2022/06/25 12:39:59;;;;;;;0.43;0.32;;;29.60;99.90;;;;;;5044244;28;20559;-85
2022/06/25 12:42:28;;;;;;;0.40;0.40;;;29.70;99.90;;;;;;5045367;28;20221;-85
2022/06/25 12:44:54;;;;;;;0.50;0.50;;;29.60;99.90;;;;;;5062685;28;20217;-84
2022/06/25 12:47:20;;;;;;;0.20;0.20;;;29.80;99.90;;;;;;5044429;28;20174;-84
2022/06/25 12:49:57;;;;;;;0.60;0.60;;;29.60;99.90;;;;;;5042231;28;20188;-85
2022/06/25 12:52:26;;;;;;;0.40;0.40;;;29.80;99.90;;;;;;5041155;28;20178;-85
2022/06/25 12:54:54;;;;;;;0.40;0.40;;;29.70;99.90;;;;;;5043198;28;20170;-84
2022/06/25 12:57:23;;;;;;;0.60;0.60;;;29.70;99.90;;;;;;5044600;28;20242;-84
2022/06/25 12:59:49;;;;;;;0.30;0.30;;;28.60;99.90;;;;;;5042010;28;20194;-84